< < Back
Terminal Aerodrome Forecast


Current Version              Previous Versions:   1  2  3  4  5  6  7  8  9  

Terminal Aerodrome Forecast

840
FTUS42 KFFC 212300
TAFCSG
TAF
KCSG 212334Z 2200/2224 33004KT P6SM SKC
     FM221500 02007KT P6SM SKC=

Latest METAR

858
SAUS70 KWBC 221300 RRA
MTRCSG
METAR KCSG 221251Z 02010G16KT 10SM CLR 12/06 A3010 RMK AO2 SLP190
T01220061


USA.gov is the U.S. government's official web portal to all federal, state and local government web resources and services.